createdAt,value
2019-05-06T00:00:24.691Z,101476.45
2019-05-06T00:02:56.181Z,101473.92
2019-05-06T00:05:27.554Z,101479.37
2019-05-06T00:07:58.642Z,101480.34
2019-05-06T00:10:31.120Z,101477.67
2019-05-06T00:13:02.013Z,101477.33
2019-05-06T00:15:34.295Z,101485.00
2019-05-06T00:18:06.221Z,101478.50
2019-05-06T00:20:37.281Z,101487.01
2019-05-06T00:23:28.291Z,101475.92
2019-05-06T00:26:30.159Z,101479.12
2019-05-06T00:29:05.028Z,101477.05
2019-05-06T00:31:36.325Z,101476.69
2019-05-06T00:34:07.276Z,101469.25
2019-05-06T00:36:38.331Z,101482.63
2019-05-06T00:39:26.802Z,101481.81
2019-05-06T00:42:04.999Z,101477.89
2019-05-06T00:44:36.032Z,101474.10
2019-05-06T00:47:07.037Z,101469.71
2019-05-06T00:49:38.090Z,101467.20
2019-05-06T00:52:09.083Z,101471.29
2019-05-06T00:54:40.390Z,101473.95
2019-05-06T00:57:11.473Z,101473.12
2019-05-06T00:59:44.165Z,101473.56
2019-05-06T01:02:15.441Z,101478.39
2019-05-06T01:04:46.479Z,101474.47
2019-05-06T01:07:17.437Z,101475.46
2019-05-06T01:09:48.596Z,101482.67
2019-05-06T01:12:19.738Z,101470.73
2019-05-06T01:14:54.376Z,101476.94
2019-05-06T01:17:25.170Z,101473.84
2019-05-06T01:19:56.497Z,101473.02
2019-05-06T01:22:29.027Z,101474.52
2019-05-06T01:25:00.397Z,101472.31
2019-05-06T01:27:33.642Z,101477.22
2019-05-06T01:30:04.728Z,101483.04
2019-05-06T01:32:35.771Z,101478.66
2019-05-06T01:35:06.951Z,101488.03
2019-05-06T01:37:39.451Z,101486.31
2019-05-06T01:40:35.217Z,101485.43
2019-05-06T01:43:11.279Z,101487.22
2019-05-06T01:45:43.917Z,101489.03
2019-05-06T01:48:18.429Z,101487.75
2019-05-06T01:50:49.449Z,101484.65
2019-05-06T01:53:20.374Z,101481.55
2019-05-06T01:55:51.455Z,101482.44
2019-05-06T01:58:24.287Z,101478.04
2019-05-06T02:00:55.414Z,101475.83
2019-05-06T02:03:26.388Z,101478.93
2019-05-06T02:05:57.325Z,101484.70
2019-05-06T02:08:28.538Z,101482.52
2019-05-06T02:10:59.887Z,101482.97
2019-05-06T02:13:31.421Z,101484.30
2019-05-06T02:16:03.970Z,101481.64
2019-05-06T02:18:35.222Z,101482.53
2019-05-06T02:21:14.407Z,101476.80
2019-05-06T02:23:49.571Z,101477.70
2019-05-06T02:26:20.701Z,101484.84
2019-05-06T02:28:54.524Z,101491.95
2019-05-06T02:31:45.862Z,101490.22
2019-05-06T02:34:21.595Z,101489.34
2019-05-06T02:37:01.824Z,101488.09
2019-05-06T02:39:34.091Z,101489.46
2019-05-06T02:42:07.259Z,101488.13
2019-05-06T02:44:38.450Z,101482.37
2019-05-06T02:47:23.741Z,101486.84
2019-05-06T02:49:57.959Z,101482.41
2019-05-06T02:52:29.144Z,101483.78
2019-05-06T02:55:01.765Z,101486.88
2019-05-06T02:57:33.658Z,101490.44
2019-05-06T03:00:06.617Z,101483.42
2019-05-06T03:02:43.306Z,101480.76
2019-05-06T03:05:12.888Z,101481.69
2019-05-06T03:07:43.588Z,101479.91
2019-05-06T03:10:16.001Z,101487.48
2019-05-06T03:12:46.940Z,101490.59
2019-05-06T03:15:17.915Z,101485.31
2019-05-06T03:17:48.877Z,101491.07
2019-05-06T03:21:00.298Z,101483.57
2019-05-06T03:23:34.906Z,101485.78
2019-05-06T03:26:06.983Z,101480.91
2019-05-06T03:28:38.666Z,101475.62
2019-05-06T03:31:09.739Z,101473.81
2019-05-06T03:33:58.480Z,101474.74
2019-05-06T03:36:23.846Z,101479.61
2019-05-06T03:38:46.208Z,101474.77
2019-05-06T03:41:17.708Z,101481.83
2019-05-06T03:43:49.107Z,101478.73
2019-05-06T03:46:38.487Z,101474.74
2019-05-06T03:49:09.609Z,101471.23
2019-05-06T03:51:42.867Z,101469.52
2019-05-06T03:54:13.727Z,101472.18
2019-05-06T03:56:44.853Z,101472.15
2019-05-06T03:59:16.355Z,101471.73
2019-05-06T04:01:47.302Z,101475.25
2019-05-06T04:04:18.336Z,101471.73
2019-05-06T04:06:53.796Z,101472.12
2019-05-06T04:09:24.692Z,101472.08
2019-05-06T04:11:55.920Z,101476.48
2019-05-06T04:14:27.687Z,101476.95
2019-05-06T04:17:06.390Z,101467.69
2019-05-06T04:19:44.567Z,101470.82
2019-05-06T04:22:23.535Z,101473.00
2019-05-06T04:27:48.239Z,101470.67
2019-05-06T04:30:20.442Z,101476.48
2019-05-06T04:32:53.221Z,101473.45
2019-05-06T04:35:24.572Z,101469.35
2019-05-06T04:37:55.769Z,101472.08
2019-05-06T04:40:26.831Z,101478.73
2019-05-06T04:42:57.676Z,101480.02
2019-05-06T04:45:29.011Z,101476.44
2019-05-06T04:48:03.308Z,101474.59
2019-05-06T04:50:33.362Z,101477.22
2019-05-06T04:53:05.544Z,101476.77
2019-05-06T04:55:37.859Z,101473.66
2019-05-06T04:58:13.480Z,101476.33
2019-05-06T05:00:44.795Z,101481.61
2019-05-06T05:06:16.210Z,101482.86
2019-05-06T05:11:48.402Z,101479.12
2019-05-06T05:14:37.718Z,101485.73
2019-05-06T05:17:12.838Z,101490.56
2019-05-06T05:24:42.635Z,101482.23
2019-05-06T05:27:17.228Z,101491.00
2019-05-06T05:29:49.035Z,101486.88
2019-05-06T05:34:52.258Z,101496.04
2019-05-06T05:39:52.819Z,101489.36
2019-05-06T05:44:53.287Z,101491.47
2019-05-06T05:47:25.404Z,101493.61
2019-05-06T05:50:04.892Z,101501.55
2019-05-06T05:57:36.116Z,101516.55
2019-05-06T06:00:12.919Z,101513.94
2019-05-06T06:02:45.093Z,101510.83
2019-05-06T06:05:17.032Z,101516.97
2019-05-06T06:07:48.113Z,101516.87
2019-05-06T06:10:43.537Z,101519.97
2019-05-06T06:13:16.626Z,101512.41
2019-05-06T06:16:13.731Z,101503.16
2019-05-06T06:19:04.254Z,101498.72
2019-05-06T06:22:22.768Z,101506.37
2019-05-06T06:24:54.348Z,101509.48
2019-05-06T06:33:06.933Z,101510.31
2019-05-06T06:38:26.391Z,101506.65
2019-05-06T06:43:48.144Z,101504.69
2019-05-06T06:49:16.199Z,101505.70
2019-05-06T06:57:07.255Z,101504.91
2019-05-06T07:02:32.820Z,101499.95
2019-05-06T07:14:22.603Z,101505.80
2019-05-06T07:17:13.651Z,101506.70
2019-05-06T07:22:42.295Z,101507.87
2019-05-06T07:25:19.339Z,101504.31
2019-05-06T07:27:57.041Z,101507.68
2019-05-06T07:33:47.352Z,101503.22
2019-05-06T07:36:22.805Z,101497.17
2019-05-06T07:42:04.939Z,101490.87
2019-05-06T07:45:14.397Z,101487.07
2019-05-06T07:49:32.751Z,101486.19
2019-05-06T07:51:49.391Z,101483.76
2019-05-06T07:57:10.055Z,101473.22
2019-05-06T08:02:22.793Z,101471.17
2019-05-06T08:07:29.098Z,101465.98
2019-05-06T08:10:02.134Z,101471.66
2019-05-06T08:12:33.950Z,101473.11
2019-05-06T08:15:08.006Z,101479.64
2019-05-06T08:17:42.380Z,101473.73
2019-05-06T08:20:15.333Z,101466.79
2019-05-06T08:23:12.602Z,101467.59
2019-05-06T08:25:49.112Z,101468.94
2019-05-06T08:30:53.721Z,101466.44
2019-05-06T08:36:07.592Z,101470.94
2019-05-06T08:40:56.525Z,101461.83
2019-05-06T08:46:03.043Z,101455.60
2019-05-06T08:51:03.821Z,101448.90
2019-05-06T08:56:09.729Z,101445.06
2019-05-06T09:01:49.556Z,101435.55
2019-05-06T09:07:04.303Z,101426.16
2019-05-06T09:09:35.647Z,101431.97
2019-05-06T09:12:13.033Z,101426.12
2019-05-06T09:14:45.101Z,101426.56
2019-05-06T09:19:45.265Z,101434.89
2019-05-06T09:22:18.852Z,101430.76
2019-05-06T09:27:39.298Z,101433.55
2019-05-06T09:35:08.787Z,101432.03
2019-05-06T09:42:38.539Z,101418.81
2019-05-06T09:45:12.510Z,101408.52
2019-05-06T09:47:55.999Z,101411.49
2019-05-06T09:53:15.389Z,101405.13
2019-05-06T09:58:15.391Z,101400.45
2019-05-06T10:00:49.052Z,101398.30
2019-05-06T10:03:39.276Z,101397.44
2019-05-06T10:06:12.949Z,101397.09
2019-05-06T10:08:43.727Z,101394.77
2019-05-06T10:11:15.673Z,101391.25
2019-05-06T10:18:47.086Z,101387.12
2019-05-06T10:21:19.736Z,101384.81
2019-05-06T10:26:20.611Z,101374.89
2019-05-06T10:29:12.708Z,101373.06
2019-05-06T10:31:46.747Z,101376.78
2019-05-06T10:34:22.054Z,101378.27
2019-05-06T10:37:33.344Z,101367.94
2019-05-06T10:43:08.692Z,101376.31
2019-05-06T10:48:16.454Z,101367.84
2019-05-06T10:53:24.259Z,101366.83
2019-05-06T10:58:26.197Z,101372.73
2019-05-06T11:03:33.028Z,101371.02
2019-05-06T11:08:35.515Z,101369.97
2019-05-06T11:13:37.959Z,101365.80
2019-05-06T11:18:42.615Z,101352.75
2019-05-06T11:24:00.762Z,101355.56
2019-05-06T11:26:32.980Z,101356.02
2019-05-06T11:29:07.601Z,101357.12
2019-05-06T11:32:02.515Z,101353.62
2019-05-06T11:34:53.079Z,101358.45
2019-05-06T11:37:50.173Z,101356.72
2019-05-06T11:40:17.076Z,101356.63
2019-05-06T11:47:47.021Z,101357.20
2019-05-06T11:50:18.282Z,101357.86
2019-05-06T11:57:57.673Z,101354.95
2019-05-06T12:03:07.425Z,101361.54
2019-05-06T12:08:09.006Z,101366.50
2019-05-06T12:13:13.338Z,101372.05
2019-05-06T12:21:11.295Z,101366.66
2019-05-06T12:26:09.098Z,101364.14
2019-05-06T12:31:09.462Z,101361.44
2019-05-06T12:34:02.644Z,101365.52
2019-05-06T12:39:20.002Z,101360.66
2019-05-06T12:42:10.404Z,101358.25
2019-05-06T12:44:44.855Z,101367.16
2019-05-06T12:47:42.683Z,101374.48
2019-05-06T12:50:14.768Z,101382.13
2019-05-06T12:52:49.109Z,101381.39
2019-05-06T12:55:24.834Z,101383.89
2019-05-06T12:58:13.643Z,101395.10
2019-05-06T13:00:47.739Z,101384.98
2019-05-06T13:03:23.613Z,101382.77
2019-05-06T13:05:57.059Z,101384.69
2019-05-06T13:13:33.244Z,101374.86
2019-05-06T13:16:17.042Z,101373.50
2019-05-06T13:19:03.070Z,101373.13
2019-05-06T13:24:07.935Z,101364.26
2019-05-06T13:29:08.453Z,101368.81
2019-05-06T13:34:08.727Z,101353.73
2019-05-06T13:36:42.748Z,101347.97
2019-05-06T13:39:32.889Z,101352.44
2019-05-06T13:42:04.685Z,101347.06
2019-05-06T13:44:36.057Z,101344.71
2019-05-06T13:49:43.602Z,101340.38
2019-05-06T13:52:23.179Z,101339.49
2019-05-06T13:54:54.639Z,101334.94
2019-05-06T13:57:28.922Z,101334.41
2019-05-06T13:59:59.617Z,101326.09
2019-05-06T14:02:50.086Z,101319.09
2019-05-06T14:05:23.268Z,101325.73
2019-05-06T14:08:13.168Z,101315.07
2019-05-06T14:10:56.677Z,101322.26
2019-05-06T14:18:18.462Z,101310.34
2019-05-06T14:21:08.588Z,101305.73
2019-05-06T14:23:40.372Z,101302.92
2019-05-06T14:26:22.748Z,101310.53
2019-05-06T14:28:53.514Z,101294.43
2019-05-06T14:36:23.183Z,101301.17
2019-05-06T14:41:27.520Z,101300.97
2019-05-06T14:46:28.930Z,101286.74
2019-05-06T14:51:32.900Z,101294.52
2019-05-06T14:54:08.155Z,101296.72
2019-05-06T14:59:19.990Z,101290.61
2019-05-06T15:04:39.437Z,101290.33
2019-05-06T15:07:12.518Z,101283.31
2019-05-06T15:09:55.794Z,101276.03
2019-05-06T15:12:16.009Z,101283.19
2019-05-06T15:14:47.059Z,101287.02
2019-05-06T15:17:18.211Z,101283.97
2019-05-06T15:19:49.390Z,101286.48
2019-05-06T15:22:22.455Z,101297.14
2019-05-06T15:27:22.769Z,101292.42
2019-05-06T15:35:22.331Z,101283.86
2019-05-06T15:40:36.556Z,101298.69
2019-05-06T15:43:10.186Z,101292.14
2019-05-06T15:45:43.602Z,101295.96
2019-05-06T15:48:15.443Z,101297.11
2019-05-06T15:50:47.779Z,101302.84
2019-05-06T15:55:53.270Z,101300.67
2019-05-06T16:00:56.848Z,101304.30
2019-05-06T16:05:57.576Z,101304.69
2019-05-06T16:11:02.928Z,101302.09
2019-05-06T16:16:09.236Z,101296.55
2019-05-06T16:21:13.783Z,101293.03
2019-05-06T16:34:12.076Z,101284.50
2019-05-06T16:39:17.199Z,101291.50
2019-05-06T16:41:49.068Z,101284.51
2019-05-06T16:46:49.396Z,101287.64
2019-05-06T16:51:52.472Z,101288.66
2019-05-06T16:54:42.614Z,101281.94
2019-05-06T16:57:13.843Z,101282.91
2019-05-06T16:59:45.190Z,101285.06
2019-05-06T17:02:26.461Z,101286.53
2019-05-06T17:05:15.073Z,101294.55
2019-05-06T17:07:46.786Z,101296.05
2019-05-06T17:10:18.222Z,101286.80
2019-05-06T17:12:49.297Z,101297.00
2019-05-06T17:15:20.270Z,101296.37
2019-05-06T17:17:53.104Z,101297.58
2019-05-06T17:20:24.246Z,101298.70
2019-05-06T17:22:55.393Z,101297.32
2019-05-06T17:25:26.419Z,101301.91
2019-05-06T17:28:02.016Z,101294.84
2019-05-06T17:30:45.797Z,101292.88
2019-05-06T17:33:42.786Z,101282.13
2019-05-06T17:36:15.933Z,101280.59
2019-05-06T17:38:48.755Z,101286.08
2019-05-06T17:41:19.770Z,101287.16
2019-05-06T17:43:52.119Z,101287.89
2019-05-06T17:46:58.774Z,101291.58
2019-05-06T17:49:29.880Z,101291.81
2019-05-06T17:52:04.727Z,101285.36
2019-05-06T17:54:35.918Z,101293.80
2019-05-06T17:57:06.894Z,101290.20
2019-05-06T17:59:38.003Z,101286.36
2019-05-06T18:02:14.359Z,101295.91
2019-05-06T18:04:45.443Z,101293.84
2019-05-06T18:07:16.479Z,101290.53
2019-05-06T18:09:47.417Z,101294.00
2019-05-06T18:12:18.751Z,101288.64
2019-05-06T18:14:49.868Z,101296.80
2019-05-06T18:17:22.031Z,101292.91
2019-05-06T18:19:53.248Z,101294.50
2019-05-06T18:22:24.166Z,101289.88
2019-05-06T18:24:55.253Z,101290.75
2019-05-06T18:27:26.282Z,101288.88
2019-05-06T18:30:11.528Z,101294.61
2019-05-06T18:32:33.131Z,101289.74
2019-05-06T18:35:03.024Z,101293.55
2019-05-06T18:37:34.067Z,101301.00
2019-05-06T18:40:06.368Z,101291.51
2019-05-06T18:42:37.426Z,101286.19
2019-05-06T18:45:08.419Z,101284.66
2019-05-06T18:47:39.426Z,101287.02
2019-05-06T18:50:13.777Z,101286.34
2019-05-06T18:52:52.869Z,101278.70
2019-05-06T18:55:23.626Z,101284.94
2019-05-06T18:57:54.595Z,101284.91
2019-05-06T19:00:25.604Z,101293.11
2019-05-06T19:02:56.775Z,101293.28
2019-05-06T19:10:33.051Z,101301.74
2019-05-06T19:13:22.418Z,101300.14
2019-05-06T19:15:53.926Z,101307.66
2019-05-06T19:18:25.235Z,101308.92
2019-05-06T19:21:15.416Z,101306.44
2019-05-06T19:26:19.223Z,101316.80
2019-05-06T19:28:52.693Z,101321.54
2019-05-06T19:33:53.636Z,101329.25
2019-05-06T19:38:54.568Z,101331.17
2019-05-06T19:43:56.932Z,101330.42
2019-05-06T19:48:58.909Z,101330.42
2019-05-06T19:51:29.887Z,101336.81
2019-05-06T19:54:02.235Z,101327.50
2019-05-06T19:56:33.649Z,101328.20
2019-05-06T20:04:10.437Z,101321.53
2019-05-06T20:06:57.482Z,101321.91
2019-05-06T20:09:42.544Z,101327.05
2019-05-06T20:12:23.070Z,101321.44
2019-05-06T20:15:19.383Z,101326.28
2019-05-06T20:17:52.060Z,101329.69
2019-05-06T20:20:23.110Z,101333.72
2019-05-06T20:22:57.675Z,101332.73
2019-05-06T20:25:30.295Z,101323.58
2019-05-06T20:28:04.399Z,101326.44
2019-05-06T20:30:38.112Z,101331.13
2019-05-06T20:33:09.110Z,101331.13
2019-05-06T20:35:40.141Z,101329.72
2019-05-06T20:38:52.461Z,101325.68
2019-05-06T20:41:23.448Z,101328.73
2019-05-06T20:43:54.372Z,101335.42
2019-05-06T20:46:33.431Z,101335.59
2019-05-06T20:49:43.073Z,101334.16
2019-05-06T20:53:01.042Z,101329.56
2019-05-06T20:55:53.575Z,101335.34
2019-05-06T20:58:19.907Z,101340.78
2019-05-06T21:00:54.080Z,101342.35
2019-05-06T21:03:25.137Z,101337.52
2019-05-06T21:05:56.520Z,101341.38
2019-05-06T21:08:42.195Z,101342.74
2019-05-06T21:11:25.688Z,101346.92
2019-05-06T21:13:45.920Z,101352.38
2019-05-06T21:16:17.062Z,101355.58
2019-05-06T21:18:48.346Z,101361.91
2019-05-06T21:22:13.354Z,101376.82
2019-05-06T21:24:02.074Z,101375.69
2019-05-06T21:26:36.130Z,101366.69
2019-05-06T21:29:12.790Z,101359.98
2019-05-06T21:31:44.646Z,101364.27
2019-05-06T21:34:15.615Z,101360.41
2019-05-06T21:36:46.409Z,101366.80
2019-05-06T21:39:17.418Z,101360.79
2019-05-06T21:41:48.420Z,101362.50
2019-05-06T21:44:19.422Z,101362.84
2019-05-06T21:46:51.250Z,101356.30
2019-05-06T21:51:51.659Z,101357.09
2019-05-06T21:54:24.092Z,101355.21
2019-05-06T21:56:55.190Z,101355.98
2019-05-06T21:59:26.192Z,101361.19
2019-05-06T22:01:57.219Z,101355.23
2019-05-06T22:04:28.182Z,101356.18
2019-05-06T22:06:59.099Z,101355.55
2019-05-06T22:09:32.183Z,101353.64
2019-05-06T22:12:02.858Z,101353.39
2019-05-06T22:14:33.855Z,101356.30
2019-05-06T22:17:07.335Z,101359.23
2019-05-06T22:19:38.613Z,101359.34
2019-05-06T22:22:12.053Z,101361.12
2019-05-06T22:24:45.808Z,101356.88
2019-05-06T22:27:17.160Z,101353.45
2019-05-06T22:29:48.182Z,101353.54
2019-05-06T22:32:19.211Z,101357.69
2019-05-06T22:34:53.496Z,101353.98
2019-05-06T22:37:24.966Z,101351.16
2019-05-06T22:39:56.598Z,101352.67
2019-05-06T22:42:27.527Z,101352.38
2019-05-06T22:44:58.580Z,101351.80
2019-05-06T22:47:29.563Z,101356.41
2019-05-06T22:50:02.154Z,101348.69
2019-05-06T22:52:33.585Z,101352.88
2019-05-06T22:55:04.569Z,101351.73
2019-05-06T22:57:35.779Z,101351.34
2019-05-06T23:00:09.910Z,101355.75
2019-05-06T23:03:03.390Z,101359.20
2019-05-06T23:05:34.512Z,101356.80
2019-05-06T23:08:06.295Z,101361.58
2019-05-06T23:10:37.279Z,101355.31
2019-05-06T23:13:08.331Z,101359.33
2019-05-06T23:15:39.289Z,101361.48
2019-05-06T23:18:10.312Z,101369.37
2019-05-06T23:20:42.998Z,101368.80
2019-05-06T23:23:14.154Z,101368.92
2019-05-06T23:25:46.973Z,101365.33
2019-05-06T23:28:17.932Z,101363.87
2019-05-06T23:30:48.872Z,101369.01
2019-05-06T23:33:19.908Z,101362.80
2019-05-06T23:35:51.808Z,101366.78
2019-05-06T23:39:16.953Z,101364.44
2019-05-06T23:42:42.034Z,101365.69
2019-05-06T23:46:07.264Z,101363.53
2019-05-06T23:49:32.749Z,101365.84
2019-05-06T23:52:58.302Z,101368.16
2019-05-06T23:56:23.740Z,101364.31
2019-05-06T23:58:54.876Z,101372.46
